»·PEaware :: N2193G KDEN-KAPA

N2193G :: KDEN-KAPA

FLIGHT INFORMATION

Flight Status: Arrived
Operator: Privately registered:
United States
More flights under this callsign
Pilot: Horacio G. (12762)
Aircraft: MOONEY M-20K/M ENCORE BRAVO
(M20T)
More flights by this aircraft type
Origin: KDEN Denver Intl
United States
Destination: KAPA Centennial
United States
More flights between these airports :: More routes between these airports
Route: DENVER9 TELLR
File this flight plan on PilotEdge
Remarks: RV ILS 35R
Altitude:
(Current/Filed)
10,000ft
Speed:
(Current/Filed)
169kts
Departed: 13-May-18 04:14 PM
Arrived: 13-May-18 04:54 PM
Distance/Time
Traveled:
19nm/0:40
Distance/Time
To Go:
Arrived

Flight Plot

Page will automatically refresh every two minutes.

Flight plan parsing failed; only flown route is shown


Map Options




Map Legend


Flown Route
Filed Route
Departure Airport
Arrival Airport
Navaid (VOR, NDB)
Fix

Horizontal Profiles

Position Reports

Time Latitude Longitude Heading Altitude Ground
Speed
13-May-18 16:00 39.839869 -104.664291 94 5401ft 0kts
13-May-18 16:01 39.839869 -104.664291 94 5401ft 0kts
13-May-18 16:02 39.839869 -104.664291 94 5401ft 0kts
13-May-18 16:03 39.839869 -104.664291 94 5401ft 0kts
13-May-18 16:04 39.839869 -104.664291 94 5401ft 0kts
13-May-18 16:05 39.839869 -104.664291 94 5401ft 0kts
13-May-18 16:06 39.839869 -104.664291 94 5401ft 0kts
13-May-18 16:07 39.839869 -104.664291 94 5401ft 0kts
13-May-18 16:08 39.839869 -104.664291 94 5401ft 0kts
13-May-18 16:09 39.839869 -104.664291 94 5401ft 0kts
13-May-18 16:10 39.839044 -104.662575 185 5404ft 14kts
13-May-18 16:11 39.833971 -104.662540 176 5406ft 20kts
13-May-18 16:12 39.828886 -104.662660 174 5416ft 13kts
13-May-18 16:13 39.828446 -104.660831 89 5419ft 11kts
13-May-18 16:14 39.845060 -104.661389 350 5796ft 109kts
13-May-18 16:15 39.849148 -104.700007 250 6850ft 136kts
13-May-18 16:16 39.838492 -104.743486 254 8274ft 119kts
13-May-18 16:17 39.828779 -104.784512 254 9601ft 115kts
13-May-18 16:18 39.818734 -104.832030 256 10025ft 165kts
13-May-18 16:19 39.803751 -104.892347 255 10009ft 182kts
13-May-18 16:20 39.790662 -104.954090 257 10007ft 184kts
13-May-18 16:21 39.776415 -105.016164 254 10013ft 183kts
13-May-18 16:22 39.752803 -105.070962 197 10004ft 185kts
13-May-18 16:23 39.701769 -105.071819 182 10005ft 185kts
13-May-18 16:24 39.650731 -105.071374 180 10036ft 183kts
13-May-18 16:25 39.599352 -105.070482 178 9997ft 184kts
13-May-18 16:26 39.549112 -105.063408 156 10011ft 183kts
13-May-18 16:27 39.504771 -105.030720 149 9994ft 182kts
13-May-18 16:28 39.460358 -104.999141 169 9063ft 186kts
13-May-18 16:29 39.421718 -104.984753 145 9011ft 167kts
13-May-18 16:30 39.379721 -104.951416 145 9027ft 180kts
13-May-18 16:31 39.345572 -104.908520 82 9025ft 180kts
13-May-18 16:32 39.359914 -104.849775 53 8911ft 174kts
13-May-18 16:33 39.406621 -104.846853 351 8535ft 173kts
13-May-18 16:34 39.455211 -104.850789 347 8085ft 175kts
13-May-18 16:35 39.496655 -104.850717 357 7053ft 124kts
13-May-18 16:36 39.531805 -104.848936 1 6362ft 120kts
13-May-18 16:37 39.561330 -104.850545 348 6199ft 123kts
13-May-18 16:38 39.595010 -104.857247 1 7514ft 133kts
13-May-18 16:39 39.588935 -104.829645 187 8762ft 140kts
13-May-18 16:40 39.545229 -104.834276 182 9016ft 171kts
13-May-18 16:41 39.496595 -104.837799 182 9015ft 177kts
13-May-18 16:42 39.447199 -104.840900 182 9003ft 179kts
13-May-18 16:43 39.398399 -104.838078 147 8994ft 178kts
13-May-18 16:44 39.385945 -104.781273 88 9020ft 176kts
13-May-18 16:45 39.370024 -104.726685 151 9013ft 178kts
13-May-18 16:46 39.323805 -104.733382 232 9016ft 178kts
13-May-18 16:47 39.321626 -104.791124 307 8974ft 166kts
13-May-18 16:48 39.359255 -104.825598 325 8560ft 159kts
13-May-18 16:49 39.399546 -104.842561 353 8255ft 157kts
13-May-18 16:50 39.444170 -104.844839 359 7995ft 155kts
13-May-18 16:51 39.483006 -104.846724 358 7372ft 130kts
13-May-18 16:52 39.516418 -104.848171 359 6693ft 114kts
13-May-18 16:53 39.546477 -104.849640 359 6107ft 96kts
13-May-18 16:54 39.567025 -104.850008 27 5844ft 21kts
13-May-18 16:55 39.569229 -104.849387 0 5834ft 20kts
13-May-18 16:56 39.575660 -104.848748 356 5814ft 17kts

Navigation Log

Ident Type
Flight plan parsing failed, navigation log unavailable